createdAt,value
2023-11-01T00:00:20.278Z,7.40
2023-11-01T00:01:20.332Z,7.29
2023-11-01T00:02:20.322Z,7.23
2023-11-01T00:03:20.462Z,7.22
2023-11-01T00:04:20.444Z,7.21
2023-11-01T00:05:20.454Z,7.22
2023-11-01T00:06:20.480Z,7.20
2023-11-01T00:07:20.530Z,7.17
2023-11-01T00:08:20.646Z,7.16
2023-11-01T00:09:20.657Z,7.15
2023-11-01T00:10:20.675Z,7.12
2023-11-01T00:11:20.821Z,7.06
2023-11-01T00:12:20.731Z,7.01
2023-11-01T00:13:20.789Z,6.98
2023-11-01T00:14:20.943Z,6.93
2023-11-01T00:15:20.984Z,6.93
2023-11-01T00:16:21.039Z,6.96
2023-11-01T00:17:21.034Z,7.01
2023-11-01T00:18:21.107Z,6.98
2023-11-01T00:19:21.133Z,6.94
2023-11-01T00:20:21.246Z,6.87
2023-11-01T00:21:21.241Z,6.83
2023-11-01T00:22:21.245Z,6.82
2023-11-01T00:23:21.293Z,6.80
2023-11-01T00:24:21.260Z,6.80
2023-11-01T00:25:21.378Z,6.81
2023-11-01T00:26:21.432Z,6.82
2023-11-01T00:27:21.710Z,6.82
2023-11-01T00:28:21.395Z,6.83
2023-11-01T00:29:21.469Z,6.84
2023-11-01T00:30:21.529Z,6.87
2023-11-01T00:31:21.527Z,6.89
2023-11-01T00:32:21.649Z,6.92
2023-11-01T00:33:21.735Z,6.88
2023-11-01T00:34:21.762Z,6.87
2023-11-01T00:35:21.793Z,6.87
2023-11-01T00:36:21.776Z,6.88
2023-11-01T00:37:21.785Z,6.88
2023-11-01T00:38:21.883Z,6.88
2023-11-01T00:39:21.979Z,6.92
2023-11-01T00:40:21.904Z,6.93
2023-11-01T00:41:21.915Z,6.93
2023-11-01T00:42:22.118Z,6.90
2023-11-01T00:43:21.917Z,6.91
2023-11-01T00:44:22.020Z,6.92
2023-11-01T00:45:22.081Z,6.94
2023-11-01T00:46:22.169Z,6.97
2023-11-01T00:47:22.279Z,6.99
2023-11-01T00:48:22.274Z,7.00
2023-11-01T00:49:22.290Z,7.00
2023-11-01T00:50:22.272Z,7.01
2023-11-01T00:51:22.273Z,7.04
2023-11-01T00:52:22.298Z,7.07
2023-11-01T00:53:22.308Z,7.10
2023-11-01T00:54:22.297Z,7.13
2023-11-01T00:55:22.243Z,7.14
2023-11-01T00:56:22.308Z,7.18
2023-11-01T00:57:22.327Z,7.20
2023-11-01T00:58:22.425Z,7.17
2023-11-01T00:59:22.441Z,7.14
2023-11-01T01:00:22.456Z,7.13
2023-11-01T01:01:22.523Z,7.12
2023-11-01T01:02:22.695Z,7.15
2023-11-01T01:03:22.676Z,7.16
2023-11-01T01:04:22.575Z,7.16
2023-11-01T01:05:22.613Z,7.17
2023-11-01T01:06:23.175Z,7.17
2023-11-01T01:07:22.606Z,7.16
2023-11-01T01:08:22.681Z,7.11
2023-11-01T01:09:22.641Z,7.07
2023-11-01T01:10:22.728Z,7.01
2023-11-01T01:11:22.747Z,6.96
2023-11-01T01:12:22.726Z,6.97
2023-11-01T01:13:22.730Z,6.86
2023-11-01T01:14:22.772Z,6.76
2023-11-01T01:15:22.870Z,6.72
2023-11-01T01:16:22.874Z,6.69
2023-11-01T01:17:22.893Z,6.68
2023-11-01T01:18:22.894Z,6.66
2023-11-01T01:19:22.855Z,6.59
2023-11-01T01:20:23.117Z,6.54
2023-11-01T01:21:23.008Z,6.50
2023-11-01T01:22:23.020Z,6.50
2023-11-01T01:23:23.042Z,6.48
2023-11-01T01:24:23.016Z,6.43
2023-11-01T01:25:23.118Z,6.43
2023-11-01T01:26:23.139Z,6.39
2023-11-01T01:27:23.136Z,6.37
2023-11-01T01:28:23.131Z,6.40
2023-11-01T01:29:23.188Z,6.42
2023-11-01T01:30:23.164Z,6.43
2023-11-01T01:31:23.301Z,6.42
2023-11-01T01:32:23.319Z,6.39
2023-11-01T01:33:23.415Z,6.34
2023-11-01T01:34:23.398Z,6.32
2023-11-01T01:35:23.453Z,6.32
2023-11-01T01:36:23.454Z,6.43
2023-11-01T01:37:24.227Z,6.44
2023-11-01T01:38:23.645Z,6.45
2023-11-01T01:39:23.646Z,6.45
2023-11-01T01:40:23.630Z,6.45
2023-11-01T01:41:23.684Z,6.43
2023-11-01T01:42:23.661Z,6.41
2023-11-01T01:43:23.819Z,6.41
2023-11-01T01:44:24.214Z,6.43
2023-11-01T01:45:23.856Z,6.46
2023-11-01T01:46:23.868Z,6.47
2023-11-01T01:47:23.899Z,6.48
2023-11-01T01:48:23.950Z,6.48
2023-11-01T01:49:32.828Z,6.50
2023-11-01T01:50:25.213Z,6.52
2023-11-01T01:51:23.938Z,6.52
2023-11-01T01:52:23.922Z,6.52
2023-11-01T01:53:24.063Z,6.47
2023-11-01T01:54:23.962Z,6.45
2023-11-01T01:55:23.891Z,6.42
2023-11-01T01:56:23.926Z,6.38
2023-11-01T01:57:23.920Z,6.32
2023-11-01T01:58:23.974Z,6.28
2023-11-01T01:59:23.886Z,6.27
2023-11-01T02:00:23.847Z,6.29
2023-11-01T02:01:34.738Z,6.29
2023-11-01T02:02:24.935Z,6.32
2023-11-01T02:03:23.995Z,6.34
2023-11-01T02:04:25.426Z,6.34
2023-11-01T02:05:23.875Z,6.33
2023-11-01T02:06:23.856Z,6.32
2023-11-01T02:07:23.917Z,6.31
2023-11-01T02:08:24.673Z,6.30
2023-11-01T02:09:24.848Z,6.31
2023-11-01T02:10:23.892Z,6.33
2023-11-01T02:11:23.981Z,6.32
2023-11-01T02:12:23.918Z,6.29
2023-11-01T02:13:23.957Z,6.27
2023-11-01T02:14:23.995Z,6.22
2023-11-01T02:15:24.063Z,6.18
2023-11-01T02:16:24.183Z,6.16
2023-11-01T02:17:24.161Z,6.17
2023-11-01T02:18:24.176Z,6.17
2023-11-01T02:19:24.166Z,6.15
2023-11-01T02:20:24.253Z,6.10
2023-11-01T02:21:24.334Z,6.06
2023-11-01T02:22:24.368Z,6.01
2023-11-01T02:23:24.354Z,6.00
2023-11-01T02:24:24.266Z,5.99
2023-11-01T02:25:24.324Z,5.96
2023-11-01T02:26:24.333Z,5.96
2023-11-01T02:27:24.351Z,5.96
2023-11-01T02:28:24.376Z,5.93
2023-11-01T02:29:24.370Z,5.95
2023-11-01T02:30:24.395Z,5.91
2023-11-01T02:31:24.441Z,5.87
2023-11-01T02:32:24.538Z,5.81
2023-11-01T02:33:24.471Z,5.80
2023-11-01T02:34:24.530Z,5.80
2023-11-01T02:35:24.578Z,5.83
2023-11-01T02:36:24.585Z,5.80
2023-11-01T02:37:24.583Z,5.75
2023-11-01T02:38:24.645Z,5.71
2023-11-01T02:39:24.613Z,5.69
2023-11-01T02:40:24.726Z,5.70
2023-11-01T02:41:24.692Z,5.67
2023-11-01T02:42:24.686Z,5.66
2023-11-01T02:43:24.748Z,5.65
2023-11-01T02:44:24.797Z,5.67
2023-11-01T02:45:24.840Z,5.70
2023-11-01T02:46:24.832Z,5.73
2023-11-01T02:47:24.918Z,5.71
2023-11-01T02:48:24.832Z,5.72
2023-11-01T02:49:24.869Z,5.71
2023-11-01T02:50:24.912Z,5.70
2023-11-01T02:51:24.898Z,5.68
2023-11-01T02:52:24.971Z,5.67
2023-11-01T02:53:25.130Z,5.68
2023-11-01T02:54:25.022Z,5.69
2023-11-01T02:55:25.029Z,5.66
2023-11-01T02:56:25.119Z,5.66
2023-11-01T02:57:25.188Z,5.70
2023-11-01T02:58:25.388Z,5.68
2023-11-01T02:59:25.250Z,5.63
2023-11-01T03:00:25.253Z,5.59
2023-11-01T03:01:25.289Z,5.53
2023-11-01T03:02:25.361Z,5.49
2023-11-01T03:03:25.707Z,5.49
2023-11-01T03:04:25.388Z,5.50
2023-11-01T03:05:25.529Z,5.51
2023-11-01T03:06:25.542Z,5.49
2023-11-01T03:07:25.587Z,5.47
2023-11-01T03:08:25.654Z,5.48
2023-11-01T03:09:26.669Z,5.49
2023-11-01T03:10:25.753Z,5.48
2023-11-01T03:11:25.726Z,5.49
2023-11-01T03:12:25.790Z,5.49
2023-11-01T03:13:25.854Z,5.49
2023-11-01T03:14:25.938Z,5.50
2023-11-01T03:15:25.888Z,5.50
2023-11-01T03:16:25.962Z,5.49
2023-11-01T03:17:26.028Z,5.48
2023-11-01T03:18:26.036Z,5.46
2023-11-01T03:19:26.076Z,5.46
2023-11-01T03:20:26.171Z,5.42
2023-11-01T03:21:26.132Z,5.42
2023-11-01T03:22:26.142Z,5.41
2023-11-01T03:23:26.218Z,5.42
2023-11-01T03:24:26.250Z,5.44
2023-11-01T03:25:26.261Z,5.43
2023-11-01T03:26:26.737Z,5.46
2023-11-01T03:27:26.372Z,5.47
2023-11-01T03:28:26.387Z,5.50
2023-11-01T03:29:26.472Z,5.50
2023-11-01T03:30:26.491Z,5.51
2023-11-01T03:31:26.676Z,5.53
2023-11-01T03:32:26.662Z,5.54
2023-11-01T03:33:26.757Z,5.54
2023-11-01T03:34:26.608Z,5.53
2023-11-01T03:35:26.669Z,5.52
2023-11-01T03:36:26.682Z,5.50
2023-11-01T03:37:26.737Z,5.51
2023-11-01T03:38:26.713Z,5.54
2023-11-01T03:39:26.776Z,5.51
2023-11-01T03:40:26.774Z,5.52
2023-11-01T03:41:26.831Z,5.52
2023-11-01T03:42:26.872Z,5.50
2023-11-01T03:43:26.883Z,5.48
2023-11-01T03:44:26.975Z,5.47
2023-11-01T03:45:27.028Z,5.46
2023-11-01T03:46:27.094Z,5.43
2023-11-01T03:47:27.145Z,5.43
2023-11-01T03:48:27.194Z,5.41
2023-11-01T03:49:27.182Z,5.44
2023-11-01T03:50:27.212Z,5.45
2023-11-01T03:51:27.247Z,5.44
2023-11-01T03:52:27.267Z,5.46
2023-11-01T03:53:27.343Z,5.46
2023-11-01T03:54:27.371Z,5.42
2023-11-01T03:55:27.344Z,5.40
2023-11-01T03:56:27.401Z,5.42
2023-11-01T03:57:27.421Z,5.38
2023-11-01T03:58:27.403Z,5.35
2023-11-01T03:59:27.559Z,5.35
2023-11-01T04:00:27.505Z,5.36
2023-11-01T04:01:27.545Z,5.34
2023-11-01T04:02:27.625Z,5.33
2023-11-01T04:03:27.680Z,5.31
2023-11-01T04:04:27.629Z,5.27
2023-11-01T04:05:27.738Z,5.25
2023-11-01T04:06:27.744Z,5.24
2023-11-01T04:07:27.780Z,5.21
2023-11-01T04:08:28.711Z,5.21
2023-11-01T04:09:27.823Z,5.21
2023-11-01T04:10:28.703Z,5.21
2023-11-01T04:11:28.012Z,5.19
2023-11-01T04:12:27.930Z,5.17
2023-11-01T04:13:27.932Z,5.14
2023-11-01T04:14:28.021Z,5.14
2023-11-01T04:15:28.027Z,5.14
2023-11-01T04:16:28.048Z,5.11
2023-11-01T04:17:28.207Z,5.05
2023-11-01T04:18:28.141Z,5.04
2023-11-01T04:19:28.186Z,5.05
2023-11-01T04:20:28.261Z,5.08
2023-11-01T04:21:28.163Z,5.09
2023-11-01T04:22:28.262Z,5.11
2023-11-01T04:23:28.280Z,5.13
2023-11-01T04:24:28.291Z,5.16
2023-11-01T04:25:28.287Z,5.18
2023-11-01T04:26:28.432Z,5.20
2023-11-01T04:27:28.327Z,5.20
2023-11-01T04:28:28.376Z,5.24
2023-11-01T04:29:28.442Z,5.26
2023-11-01T04:30:28.444Z,5.29
2023-11-01T04:31:28.555Z,5.31
2023-11-01T04:32:28.764Z,5.32
2023-11-01T04:33:28.604Z,5.34
2023-11-01T04:34:28.583Z,5.35
2023-11-01T04:35:28.608Z,5.35
2023-11-01T04:36:28.787Z,5.35
2023-11-01T04:37:28.690Z,5.34
2023-11-01T04:38:28.757Z,5.31
2023-11-01T04:39:28.795Z,5.28
2023-11-01T04:40:28.757Z,5.23
2023-11-01T04:41:29.766Z,5.21
2023-11-01T04:42:28.827Z,5.17
2023-11-01T04:43:28.828Z,5.15
2023-11-01T04:44:28.882Z,5.12
2023-11-01T04:45:29.105Z,5.10
2023-11-01T04:46:29.010Z,5.11
2023-11-01T04:47:29.021Z,5.11
2023-11-01T04:48:29.117Z,5.06
2023-11-01T04:49:29.108Z,5.03
2023-11-01T04:50:29.140Z,5.04
2023-11-01T04:51:29.123Z,5.02
2023-11-01T04:52:29.215Z,5.03
2023-11-01T04:53:29.271Z,5.03
2023-11-01T04:54:29.225Z,5.01
2023-11-01T04:55:29.233Z,5.03
2023-11-01T04:56:29.381Z,5.04
2023-11-01T04:57:29.338Z,5.04
2023-11-01T04:58:29.432Z,5.03
2023-11-01T04:59:29.393Z,5.02
2023-11-01T05:00:29.411Z,5.01
2023-11-01T05:01:29.523Z,5.01
2023-11-01T05:02:29.538Z,5.01
2023-11-01T05:03:29.571Z,4.99
2023-11-01T05:04:29.709Z,4.94
2023-11-01T05:05:29.542Z,4.89
2023-11-01T05:06:29.518Z,4.88
2023-11-01T05:07:29.625Z,4.87
2023-11-01T05:08:29.675Z,4.87
2023-11-01T05:09:29.720Z,4.87
2023-11-01T05:10:29.741Z,4.89
2023-11-01T05:11:29.750Z,4.88
2023-11-01T05:12:29.805Z,4.89
2023-11-01T05:13:29.840Z,4.91
2023-11-01T05:14:29.863Z,4.93
2023-11-01T05:15:29.945Z,4.97
2023-11-01T05:16:29.991Z,4.98
2023-11-01T05:17:30.072Z,4.99
2023-11-01T05:18:30.049Z,5.02
2023-11-01T05:19:30.006Z,5.03
2023-11-01T05:20:30.117Z,5.06
2023-11-01T05:21:30.106Z,5.07
2023-11-01T05:22:30.126Z,5.11
2023-11-01T05:23:30.190Z,5.14
2023-11-01T05:24:30.138Z,5.17
2023-11-01T05:25:30.871Z,5.18
2023-11-01T05:26:30.291Z,5.21
2023-11-01T05:27:30.273Z,5.22
2023-11-01T05:28:30.273Z,5.22
2023-11-01T05:29:30.417Z,5.24
2023-11-01T05:30:30.453Z,5.25
2023-11-01T05:31:30.385Z,5.24
2023-11-01T05:32:30.467Z,5.23
2023-11-01T05:33:30.436Z,5.22
2023-11-01T05:34:30.971Z,5.20
2023-11-01T05:35:30.537Z,5.22
2023-11-01T05:36:30.584Z,5.23
2023-11-01T05:37:30.743Z,5.23
2023-11-01T05:38:30.818Z,5.24
2023-11-01T05:39:30.753Z,5.24
2023-11-01T05:40:30.737Z,5.25
2023-11-01T05:41:30.802Z,5.27
2023-11-01T05:42:30.788Z,5.28
2023-11-01T05:43:30.787Z,5.30
2023-11-01T05:44:30.972Z,5.33
2023-11-01T05:45:30.889Z,5.33
2023-11-01T05:46:30.968Z,5.34
2023-11-01T05:47:31.230Z,5.33
2023-11-01T05:48:31.015Z,5.34
2023-11-01T05:49:31.028Z,5.36
2023-11-01T05:50:31.068Z,5.40
2023-11-01T05:51:31.160Z,5.42
2023-11-01T05:52:31.242Z,5.44
2023-11-01T05:53:31.173Z,5.44
2023-11-01T05:54:31.228Z,5.44
2023-11-01T05:55:38.536Z,5.45
2023-11-01T05:56:32.283Z,5.45
2023-11-01T05:57:31.267Z,5.46
2023-11-01T05:58:31.263Z,5.46
2023-11-01T05:59:31.253Z,5.45
2023-11-01T06:00:31.745Z,5.44
2023-11-01T06:01:31.242Z,5.44
2023-11-01T06:02:31.312Z,5.44
2023-11-01T06:03:31.410Z,5.45
2023-11-01T06:04:31.299Z,5.47
2023-11-01T06:05:31.238Z,5.48
2023-11-01T06:06:31.205Z,5.48
2023-11-01T06:07:31.143Z,5.47
2023-11-01T06:08:31.197Z,5.45
2023-11-01T06:09:32.023Z,5.43
2023-11-01T06:10:31.166Z,5.41
2023-11-01T06:11:31.213Z,5.43
2023-11-01T06:12:31.257Z,5.47
2023-11-01T06:13:31.285Z,5.49
2023-11-01T06:14:31.333Z,5.49
2023-11-01T06:15:31.336Z,5.48
2023-11-01T06:16:31.450Z,5.48
2023-11-01T06:17:31.602Z,5.49
2023-11-01T06:18:31.453Z,5.51
2023-11-01T06:19:31.532Z,5.50
2023-11-01T06:20:31.577Z,5.52
2023-11-01T06:21:31.579Z,5.56
2023-11-01T06:22:31.676Z,5.56
2023-11-01T06:23:31.717Z,5.58
2023-11-01T06:24:31.706Z,5.58
2023-11-01T06:25:31.705Z,5.55
2023-11-01T06:26:31.896Z,5.51
2023-11-01T06:27:31.813Z,5.52
2023-11-01T06:28:31.833Z,5.49
2023-11-01T06:29:31.865Z,5.44
2023-11-01T06:30:32.751Z,5.40
2023-11-01T06:31:31.852Z,5.38
2023-11-01T06:32:31.915Z,5.38
2023-11-01T06:33:32.130Z,5.36
2023-11-01T06:34:31.945Z,5.33
2023-11-01T06:35:32.005Z,5.32
2023-11-01T06:36:32.087Z,5.28
2023-11-01T06:37:32.094Z,5.23
2023-11-01T06:38:32.151Z,5.21
2023-11-01T06:39:32.635Z,5.18
2023-11-01T06:40:32.705Z,5.14
2023-11-01T06:41:32.867Z,5.12
2023-11-01T06:42:32.803Z,5.11
2023-11-01T06:43:32.837Z,5.09
2023-11-01T06:44:32.894Z,5.11
2023-11-01T06:45:33.049Z,5.12
2023-11-01T06:46:33.010Z,5.08
2023-11-01T06:47:33.046Z,5.06
2023-11-01T06:48:33.018Z,5.08
2023-11-01T06:49:32.990Z,5.10
2023-11-01T06:50:33.095Z,5.11
2023-11-01T06:51:33.137Z,5.13
2023-11-01T06:52:33.115Z,5.14
2023-11-01T06:53:33.231Z,5.18
2023-11-01T06:54:33.236Z,5.22
2023-11-01T06:55:33.244Z,5.27
2023-11-01T06:56:33.255Z,5.33
2023-11-01T06:57:33.436Z,5.36
2023-11-01T06:58:33.350Z,5.37
2023-11-01T06:59:33.390Z,5.40
2023-11-01T07:00:33.421Z,5.40
2023-11-01T07:01:33.446Z,5.42
2023-11-01T07:02:33.535Z,5.42
2023-11-01T07:03:33.690Z,5.45
2023-11-01T07:04:33.511Z,5.47
2023-11-01T07:05:33.604Z,5.49
2023-11-01T07:06:33.618Z,5.53
2023-11-01T07:07:33.719Z,5.57
2023-11-01T07:08:33.832Z,5.58
2023-11-01T07:09:33.790Z,5.61
2023-11-01T07:10:33.956Z,5.63
2023-11-01T07:11:33.948Z,5.64
2023-11-01T07:12:34.728Z,5.63
2023-11-01T07:13:33.968Z,5.63
2023-11-01T07:28:16.149Z,5.69
2023-11-01T07:29:15.857Z,5.99
2023-11-01T07:30:15.849Z,6.02
2023-11-01T07:31:16.176Z,6.00
2023-11-01T07:32:17.173Z,6.01
2023-11-01T07:33:16.689Z,6.02
2023-11-01T07:34:16.061Z,6.09
2023-11-01T07:35:15.761Z,6.18
2023-11-01T07:36:15.791Z,6.28
2023-11-01T07:37:15.834Z,6.34
2023-11-01T07:38:15.801Z,6.39
2023-11-01T07:39:16.111Z,6.43
2023-11-01T07:40:15.789Z,6.47
2023-11-01T07:41:15.823Z,6.54
2023-11-01T07:42:15.727Z,6.58
2023-11-01T07:43:15.726Z,6.65
2023-11-01T07:44:15.748Z,6.67
2023-11-01T07:45:15.752Z,6.64
2023-11-01T07:46:15.746Z,6.69
2023-11-01T07:47:15.677Z,6.72
2023-11-01T07:48:19.300Z,6.75
2023-11-01T07:49:15.789Z,6.80
2023-11-01T07:50:15.667Z,6.97
2023-11-01T07:51:15.688Z,7.06
2023-11-01T07:52:15.688Z,7.22
2023-11-01T07:53:15.663Z,7.45
2023-11-01T07:56:30.693Z,7.95
2023-11-01T07:57:30.459Z,8.59
2023-11-01T07:58:30.600Z,9.20
2023-11-01T07:59:30.858Z,10.24
2023-11-01T08:00:31.401Z,11.16
2023-11-01T08:01:30.422Z,11.80
2023-11-01T08:02:30.474Z,11.49
2023-11-01T08:03:30.532Z,11.35
2023-11-01T08:04:30.685Z,13.33
2023-11-01T08:05:30.366Z,14.27
2023-11-01T08:06:30.413Z,15.71
2023-11-01T08:07:30.330Z,16.54
2023-11-01T08:08:30.338Z,17.17
2023-11-01T08:09:30.351Z,16.78
2023-11-01T08:10:30.438Z,15.90
2023-11-01T08:11:30.355Z,15.26
2023-11-01T08:12:30.354Z,14.81
2023-11-01T08:13:30.344Z,14.57
2023-11-01T08:14:30.357Z,14.57
2023-11-01T08:15:30.354Z,14.47
2023-11-01T08:16:30.394Z,15.23
2023-11-01T08:17:30.476Z,16.21
2023-11-01T08:18:30.387Z,16.57
2023-11-01T08:19:30.459Z,16.05
2023-11-01T08:20:30.507Z,15.81
2023-11-01T08:21:30.514Z,15.36
2023-11-01T08:22:30.537Z,15.20
2023-11-01T08:23:30.633Z,15.47
2023-11-01T08:24:30.548Z,16.17
2023-11-01T08:25:30.634Z,16.18
2023-11-01T08:26:30.695Z,16.77
2023-11-01T08:27:30.663Z,15.98
2023-11-01T08:28:30.693Z,16.14
2023-11-01T08:29:30.934Z,16.81
2023-11-01T08:30:30.713Z,18.50
2023-11-01T08:31:30.776Z,19.57
2023-11-01T08:32:30.853Z,20.95
2023-11-01T08:33:30.918Z,22.08
2023-11-01T08:34:31.118Z,23.13
2023-11-01T08:35:30.953Z,24.08
2023-11-01T08:36:30.913Z,24.24
2023-11-01T08:37:30.945Z,24.72
2023-11-01T08:38:31.269Z,25.64
2023-11-01T08:39:31.005Z,26.58
2023-11-01T08:40:31.045Z,27.58
2023-11-01T08:41:31.097Z,28.03
2023-11-01T08:42:31.191Z,28.21
2023-11-01T08:43:31.144Z,27.60
2023-11-01T08:44:31.225Z,27.37
2023-11-01T08:45:31.222Z,25.72
2023-11-01T08:46:31.419Z,25.45
2023-11-01T08:47:31.271Z,24.31
2023-11-01T08:48:31.285Z,21.80
2023-11-01T08:49:31.331Z,21.33
2023-11-01T08:50:31.341Z,22.57
2023-11-01T08:51:31.316Z,23.01
2023-11-01T08:52:31.462Z,22.04
2023-11-01T08:53:32.967Z,21.45
2023-11-01T08:54:31.463Z,22.62
2023-11-01T08:55:31.563Z,22.97
2023-11-01T08:56:31.620Z,22.11
2023-11-01T08:57:34.116Z,22.60
2023-11-01T08:58:31.710Z,23.49
2023-11-01T08:59:31.720Z,24.88
2023-11-01T09:00:39.499Z,26.11
2023-11-01T09:01:32.881Z,25.70
2023-11-01T09:02:31.794Z,24.19
2023-11-01T09:03:31.840Z,24.57
2023-11-01T09:04:31.797Z,24.70
2023-11-01T09:05:31.737Z,25.20
2023-11-01T09:06:31.756Z,26.22
2023-11-01T09:07:31.768Z,27.13
2023-11-01T09:08:31.968Z,27.75
2023-11-01T09:09:31.676Z,28.07
2023-11-01T09:10:31.697Z,27.63
2023-11-01T09:11:31.717Z,27.51
2023-11-01T09:12:31.837Z,28.60
2023-11-01T09:13:31.682Z,29.18
2023-11-01T09:14:31.724Z,28.90
2023-11-01T09:15:31.714Z,28.35
2023-11-01T09:16:31.767Z,28.66
2023-11-01T09:17:31.765Z,28.22
2023-11-01T09:18:31.940Z,28.08
2023-11-01T09:19:31.821Z,27.13
2023-11-01T09:20:31.918Z,26.78
2023-11-01T09:21:31.865Z,26.59
2023-11-01T09:22:31.951Z,25.87
2023-11-01T09:23:31.988Z,25.86
2023-11-01T09:24:32.017Z,25.72
2023-11-01T09:25:31.993Z,25.13
2023-11-01T09:26:32.148Z,25.91
2023-11-01T09:27:32.068Z,27.25
2023-11-01T09:28:32.626Z,28.27
2023-11-01T09:29:32.173Z,29.17
2023-11-01T09:30:32.229Z,29.59
2023-11-01T09:31:32.157Z,30.08
2023-11-01T09:32:32.344Z,30.17
2023-11-01T09:33:32.339Z,29.39
2023-11-01T09:34:32.341Z,28.17
2023-11-01T09:35:32.486Z,28.32
2023-11-01T09:36:32.479Z,28.80
2023-11-01T09:37:32.411Z,29.71
2023-11-01T09:38:32.403Z,30.59
2023-11-01T09:39:33.218Z,30.58
2023-11-01T09:40:33.193Z,29.78
2023-11-01T09:41:32.448Z,29.89
2023-11-01T09:42:32.517Z,28.87
2023-11-01T09:43:32.528Z,29.29
2023-11-01T09:44:32.611Z,29.25
2023-11-01T09:45:32.626Z,28.36
2023-11-01T09:46:32.657Z,27.43
2023-11-01T09:47:32.718Z,26.29
2023-11-01T09:48:32.757Z,25.75
2023-11-01T09:49:32.758Z,26.12
2023-11-01T09:50:32.736Z,26.43
2023-11-01T09:51:32.724Z,25.69
2023-11-01T09:52:35.864Z,25.81
2023-11-01T09:53:32.820Z,25.23
2023-11-01T09:54:32.720Z,24.73
2023-11-01T09:55:32.879Z,24.73
2023-11-01T09:56:32.753Z,23.82
2023-11-01T09:57:32.712Z,22.52
2023-11-01T09:58:32.807Z,22.23
2023-11-01T09:59:33.666Z,22.26
2023-11-01T10:00:32.723Z,22.00
2023-11-01T10:01:32.659Z,22.06
2023-11-01T10:02:32.811Z,23.30
2023-11-01T10:03:32.709Z,24.33
2023-11-01T10:04:32.799Z,24.95
2023-11-01T10:05:32.668Z,25.41
2023-11-01T10:06:32.663Z,25.06
2023-11-01T10:07:32.689Z,24.24
2023-11-01T10:08:32.722Z,24.01
2023-11-01T10:09:32.615Z,24.08
2023-11-01T10:10:33.149Z,24.55
2023-11-01T10:11:32.671Z,24.38
2023-11-01T10:12:32.675Z,22.82
2023-11-01T10:13:32.612Z,22.30
2023-11-01T10:14:32.650Z,22.07
2023-11-01T10:15:32.743Z,20.98
2023-11-01T10:16:32.645Z,19.90
2023-11-01T10:17:32.725Z,19.84
2023-11-01T10:18:32.709Z,20.45
2023-11-01T10:19:32.697Z,20.50
2023-11-01T10:20:32.552Z,20.39
2023-11-01T10:21:32.558Z,19.48
2023-11-01T10:22:32.583Z,18.81
2023-11-01T10:23:32.538Z,18.13
2023-11-01T10:24:32.531Z,17.91
2023-11-01T10:25:32.827Z,17.62
2023-11-01T10:26:32.529Z,17.22
2023-11-01T10:27:32.511Z,16.76
2023-11-01T10:28:32.512Z,16.23
2023-11-01T10:29:32.467Z,15.84
2023-11-01T10:30:32.525Z,15.23
2023-11-01T10:31:32.651Z,14.86
2023-11-01T10:32:32.577Z,14.71
2023-11-01T10:33:32.524Z,14.89
2023-11-01T10:34:32.485Z,14.95
2023-11-01T10:35:32.515Z,15.34
2023-11-01T10:36:32.521Z,16.12
2023-11-01T10:37:32.480Z,16.90
2023-11-01T10:38:32.498Z,17.88
2023-11-01T10:39:32.481Z,18.52
2023-11-01T10:40:32.606Z,18.75
2023-11-01T10:41:32.514Z,18.50
2023-11-01T10:42:32.531Z,18.12
2023-11-01T10:43:32.636Z,18.14
2023-11-01T10:44:32.597Z,18.42
2023-11-01T10:45:32.678Z,18.29
2023-11-01T10:46:32.709Z,17.97
2023-11-01T10:47:32.762Z,17.85
2023-11-01T10:48:32.814Z,17.55
2023-11-01T10:49:32.751Z,17.62
2023-11-01T10:50:32.815Z,18.08
2023-11-01T10:51:32.879Z,18.11
2023-11-01T10:52:32.876Z,17.70
2023-11-01T10:53:32.878Z,17.89
2023-11-01T10:54:33.016Z,17.79
2023-11-01T10:55:32.912Z,17.36
2023-11-01T10:56:32.958Z,16.99
2023-11-01T10:57:32.930Z,16.64
2023-11-01T10:58:32.953Z,16.38
2023-11-01T10:59:32.980Z,15.72
2023-11-01T11:00:33.052Z,15.27
2023-11-01T11:01:33.145Z,15.18
2023-11-01T11:02:33.174Z,15.20
2023-11-01T11:03:33.347Z,15.06
2023-11-01T11:04:33.281Z,15.06
2023-11-01T11:05:33.195Z,14.99
2023-11-01T11:06:33.188Z,14.86
2023-11-01T11:07:33.346Z,14.79
2023-11-01T11:08:33.333Z,14.67
2023-11-01T11:09:33.322Z,14.57
2023-11-01T11:10:33.464Z,14.44
2023-11-01T11:11:33.450Z,14.29
2023-11-01T11:12:33.464Z,13.96
2023-11-01T11:13:33.443Z,13.99
2023-11-01T11:14:33.578Z,14.21
2023-11-01T11:15:33.546Z,14.36
2023-11-01T11:16:33.663Z,14.73
2023-11-01T11:17:33.659Z,15.04
2023-11-01T11:18:36.140Z,15.65
2023-11-01T11:19:34.618Z,15.78
2023-11-01T11:20:33.601Z,15.53
2023-11-01T11:21:33.582Z,15.50
2023-11-01T11:22:33.586Z,15.81
2023-11-01T11:23:33.608Z,16.45
2023-11-01T11:24:34.184Z,16.94
2023-11-01T11:25:33.522Z,17.48
2023-11-01T11:26:33.552Z,18.09
2023-11-01T11:27:33.521Z,18.68
2023-11-01T11:28:33.539Z,18.66
2023-11-01T11:29:33.603Z,18.60
2023-11-01T11:30:35.024Z,18.24
2023-11-01T11:31:33.606Z,18.54
2023-11-01T11:32:33.881Z,18.44
2023-11-01T11:33:33.765Z,18.31
2023-11-01T11:34:34.617Z,18.20
2023-11-01T11:35:33.808Z,17.82
2023-11-01T11:36:35.480Z,17.45
2023-11-01T11:37:34.020Z,17.12
2023-11-01T11:38:34.103Z,16.87
2023-11-01T11:39:34.056Z,16.74
2023-11-01T11:40:34.050Z,16.66
2023-11-01T11:41:34.164Z,16.61
2023-11-01T11:42:35.217Z,16.76
2023-11-01T11:43:34.152Z,16.68
2023-11-01T11:44:34.263Z,16.55
2023-11-01T11:45:34.313Z,16.68
2023-11-01T11:46:34.278Z,16.58
2023-11-01T11:47:34.461Z,16.63
2023-11-01T11:48:34.432Z,16.72
2023-11-01T11:49:34.405Z,16.62
2023-11-01T11:50:34.379Z,16.38
2023-11-01T11:51:34.432Z,16.04
2023-11-01T11:52:34.533Z,15.75
2023-11-01T11:53:34.573Z,15.63
2023-11-01T11:54:34.534Z,15.36
2023-11-01T11:55:34.627Z,15.25
2023-11-01T11:56:34.624Z,15.26
2023-11-01T11:57:34.610Z,15.39
2023-11-01T11:58:35.382Z,15.46
2023-11-01T11:59:34.758Z,15.45
2023-11-01T12:00:34.794Z,15.29
2023-11-01T12:01:34.827Z,15.04
2023-11-01T12:02:34.854Z,14.68
2023-11-01T12:03:34.970Z,14.61
2023-11-01T12:04:37.665Z,14.80
2023-11-01T12:05:34.864Z,14.83
2023-11-01T12:06:34.826Z,14.82
2023-11-01T12:07:34.946Z,14.83
2023-11-01T12:08:34.878Z,14.75
2023-11-01T12:09:34.808Z,14.71
2023-11-01T12:10:37.408Z,14.62
2023-11-01T12:11:34.812Z,14.50
2023-11-01T12:12:34.831Z,14.36
2023-11-01T12:13:34.775Z,14.33
2023-11-01T12:14:34.812Z,14.28
2023-11-01T12:15:34.800Z,14.05
2023-11-01T12:16:37.160Z,14.00
2023-11-01T12:17:34.998Z,14.05
2023-11-01T12:18:35.735Z,14.26
2023-11-01T12:19:34.789Z,14.43
2023-11-01T12:20:34.788Z,14.48
2023-11-01T12:21:34.729Z,14.30
2023-11-01T12:22:34.737Z,14.15
2023-11-01T12:23:34.780Z,14.07
2023-11-01T12:24:34.745Z,14.13
2023-11-01T12:25:34.702Z,14.14
2023-11-01T12:26:35.204Z,14.14
2023-11-01T12:27:34.688Z,14.00
2023-11-01T12:28:37.071Z,13.74
2023-11-01T12:29:34.937Z,13.70
2023-11-01T12:30:34.653Z,13.79
2023-11-01T12:31:37.702Z,13.83
2023-11-01T12:32:34.839Z,13.83
2023-11-01T12:33:34.958Z,13.69
2023-11-01T12:34:34.679Z,13.56
2023-11-01T12:35:34.753Z,13.45
2023-11-01T12:36:34.637Z,13.49
2023-11-01T12:37:34.689Z,13.50
2023-11-01T12:38:34.653Z,13.48
2023-11-01T12:39:34.682Z,13.36
2023-11-01T12:40:36.811Z,13.22
2023-11-01T12:41:34.722Z,13.23
2023-11-01T12:42:34.634Z,13.28
2023-11-01T12:43:34.669Z,13.06
2023-11-01T12:44:34.703Z,12.96
2023-11-01T12:45:34.602Z,12.82
2023-11-01T12:46:35.914Z,12.82
2023-11-01T12:47:34.614Z,12.79
2023-11-01T12:48:34.538Z,12.71
2023-11-01T12:49:34.576Z,12.73
2023-11-01T12:50:34.719Z,12.73
2023-11-01T12:51:34.537Z,12.69
2023-11-01T12:52:36.606Z,12.63
2023-11-01T12:53:34.558Z,12.71
2023-11-01T12:54:34.561Z,12.77
2023-11-01T12:55:34.548Z,12.86
2023-11-01T12:56:34.541Z,12.90
2023-11-01T12:57:34.576Z,12.94
2023-11-01T12:58:35.934Z,13.01
2023-11-01T12:59:34.900Z,12.93
2023-11-01T13:00:34.911Z,12.88
2023-11-01T13:06:53.439Z,12.90
2023-11-01T13:07:53.420Z,12.95
2023-11-01T13:08:53.633Z,13.01
2023-11-01T13:09:53.336Z,12.98
2023-11-01T13:10:53.390Z,12.92
2023-11-01T13:11:53.378Z,12.91
2023-11-01T13:12:53.365Z,12.82
2023-11-01T13:13:53.305Z,12.71
2023-11-01T13:14:53.284Z,12.71
2023-11-01T13:15:53.384Z,12.76
2023-11-01T13:16:53.296Z,12.78
2023-11-01T13:17:53.310Z,12.82
2023-11-01T13:18:53.315Z,12.77
2023-11-01T13:19:54.365Z,12.62
2023-11-01T13:20:53.235Z,12.62
2023-11-01T13:21:53.216Z,12.63
2023-11-01T13:22:54.909Z,12.55
2023-11-01T13:23:53.294Z,12.53
2023-11-01T13:24:53.303Z,12.60
2023-11-01T13:25:53.247Z,12.67
2023-11-01T13:26:53.311Z,12.66
2023-11-01T13:27:53.226Z,12.63
2023-11-01T13:28:53.225Z,12.57